createdAt,value
2022-08-09T00:01:04.872Z,100219.06
2022-08-09T00:04:34.750Z,100218.00
2022-08-09T00:07:44.416Z,100219.63
2022-08-09T00:10:47.228Z,100218.69
2022-08-09T00:13:50.114Z,100208.47
2022-08-09T00:16:52.447Z,100203.47
2022-08-09T00:19:55.253Z,100213.47
2022-08-09T00:23:08.372Z,100210.66
2022-08-09T00:26:32.074Z,100197.22
2022-08-09T00:30:16.480Z,100203.25
2022-08-09T00:32:57.838Z,100207.22
2022-08-09T00:36:00.978Z,100220.13
2022-08-09T00:39:04.645Z,100217.75
2022-08-09T00:44:10.099Z,100212.69
2022-08-09T00:45:29.286Z,100217.19
2022-08-09T00:48:32.000Z,100211.63
2022-08-09T00:51:47.049Z,100219.53
2022-08-09T00:54:59.102Z,100220.34
2022-08-09T00:58:02.565Z,100226.84
2022-08-09T01:01:22.188Z,100219.41
2022-08-09T01:04:27.527Z,100215.00
2022-08-09T01:08:01.893Z,100208.13
2022-08-09T01:11:25.943Z,100207.91
2022-08-09T01:14:52.436Z,100225.59
2022-08-09T01:18:14.367Z,100223.91
2022-08-09T01:21:44.679Z,100222.84
2022-08-09T01:25:21.993Z,100224.50
2022-08-09T01:28:25.380Z,100217.34
2022-08-09T01:32:30.624Z,100220.22
2022-08-09T01:34:50.782Z,100211.50
2022-08-09T01:38:09.316Z,100211.75
2022-08-09T01:41:16.808Z,100212.66
2022-08-09T01:44:19.349Z,100217.88
2022-08-09T01:47:21.791Z,100215.78
2022-08-09T01:50:29.888Z,100212.69
2022-08-09T01:53:41.009Z,100216.16
2022-08-09T01:56:47.101Z,100213.16
2022-08-09T02:00:00.219Z,100219.41
2022-08-09T02:03:19.884Z,100216.72
2022-08-09T02:06:45.379Z,100226.47
2022-08-09T02:10:03.816Z,100216.72
2022-08-09T02:13:08.695Z,100221.59
2022-08-09T02:16:12.317Z,100227.75
2022-08-09T02:19:14.519Z,100228.09
2022-08-09T02:22:45.719Z,100228.47
2022-08-09T02:25:55.667Z,100229.94
2022-08-09T02:29:31.402Z,100218.56
2022-08-09T02:32:34.912Z,100225.88
2022-08-09T02:36:03.031Z,100217.34
2022-08-09T02:39:07.661Z,100220.06
2022-08-09T02:42:31.142Z,100218.56
2022-08-09T02:45:35.738Z,100223.34
2022-08-09T02:48:38.395Z,100214.97
2022-08-09T02:51:53.276Z,100218.91
2022-08-09T02:54:57.114Z,100222.69
2022-08-09T02:58:32.254Z,100220.69
2022-08-09T03:01:42.512Z,100224.88
2022-08-09T03:04:45.030Z,100233.69
2022-08-09T03:07:55.010Z,100230.84
2022-08-09T03:10:57.575Z,100235.97
2022-08-09T03:14:02.473Z,100244.16
2022-08-09T03:17:05.655Z,100239.97
2022-08-09T03:20:11.318Z,100237.09
2022-08-09T03:23:15.060Z,100245.56
2022-08-09T03:26:31.849Z,100242.88
2022-08-09T03:29:35.754Z,100238.84
2022-08-09T03:32:56.575Z,100237.44
2022-08-09T03:36:13.536Z,100236.97
2022-08-09T03:39:18.361Z,100230.81
2022-08-09T03:42:21.418Z,100230.78
2022-08-09T03:46:04.919Z,100232.06
2022-08-09T03:48:58.584Z,100233.47
2022-08-09T03:52:03.544Z,100234.47
2022-08-09T03:55:09.622Z,100231.41
2022-08-09T03:58:16.113Z,100222.50
2022-08-09T04:01:19.131Z,100222.78
2022-08-09T04:04:22.118Z,100227.09
2022-08-09T04:07:47.045Z,100228.59
2022-08-09T04:10:51.323Z,100227.22
2022-08-09T04:15:00.322Z,100219.88
2022-08-09T04:17:18.844Z,100225.22
2022-08-09T04:20:20.907Z,100221.75
2022-08-09T04:23:25.885Z,100217.66
2022-08-09T04:26:38.202Z,100223.34
2022-08-09T04:29:40.451Z,100221.84
2022-08-09T04:32:52.490Z,100232.56
2022-08-09T04:35:56.307Z,100228.59
2022-08-09T04:39:00.731Z,100221.50
2022-08-09T04:42:03.078Z,100224.75
2022-08-09T04:45:06.278Z,100226.41
2022-08-09T04:48:10.511Z,100224.19
2022-08-09T04:51:13.023Z,100216.63
2022-08-09T04:54:18.840Z,100221.72
2022-08-09T04:57:24.039Z,100210.41
2022-08-09T05:00:31.947Z,100207.25
2022-08-09T05:03:42.573Z,100214.41
2022-08-09T05:06:46.107Z,100220.25
2022-08-09T05:09:52.851Z,100217.38
2022-08-09T05:12:54.955Z,100215.34
2022-08-09T05:15:57.229Z,100221.69
2022-08-09T05:19:00.157Z,100216.59
2022-08-09T05:22:02.860Z,100225.19
2022-08-09T05:25:05.684Z,100229.56
2022-08-09T05:28:07.812Z,100228.03
2022-08-09T05:31:10.126Z,100225.91
2022-08-09T05:34:16.936Z,100222.59
2022-08-09T05:37:19.663Z,100220.06
2022-08-09T05:40:21.949Z,100231.75
2022-08-09T05:43:24.711Z,100236.41
2022-08-09T05:46:34.045Z,100231.75
2022-08-09T05:50:25.765Z,100241.84
2022-08-09T05:52:58.230Z,100235.25
2022-08-09T05:56:01.516Z,100240.09
2022-08-09T05:59:03.970Z,100240.66
2022-08-09T06:02:06.182Z,100249.28
2022-08-09T06:05:10.139Z,100255.06
2022-08-09T06:08:18.963Z,100265.38
2022-08-09T06:11:22.030Z,100267.09
2022-08-09T06:14:42.799Z,100278.19
2022-08-09T06:17:45.054Z,100283.88
2022-08-09T06:20:54.252Z,100281.44
2022-08-09T06:24:01.496Z,100283.69
2022-08-09T06:27:04.842Z,100289.72
2022-08-09T06:30:09.907Z,100277.53
2022-08-09T06:33:30.586Z,100286.44
2022-08-09T06:36:34.365Z,100287.38
2022-08-09T06:39:48.831Z,100289.72
2022-08-09T06:42:58.548Z,100292.91
2022-08-09T06:46:06.399Z,100290.25
2022-08-09T06:49:16.191Z,100306.16
2022-08-09T06:52:31.476Z,100301.00
2022-08-09T06:55:34.183Z,100304.44
2022-08-09T07:00:46.830Z,100297.09
2022-08-09T07:02:04.528Z,100288.81
2022-08-09T07:05:07.882Z,100298.31
2022-08-09T07:08:09.988Z,100291.56
2022-08-09T07:11:12.351Z,100294.97
2022-08-09T07:14:18.089Z,100291.00
2022-08-09T07:17:28.894Z,100291.19
2022-08-09T07:20:43.776Z,100292.41
2022-08-09T07:23:58.352Z,100306.91
2022-08-09T07:27:01.274Z,100302.38
2022-08-09T07:30:04.162Z,100305.97
2022-08-09T07:33:12.279Z,100307.53
2022-08-09T07:36:17.316Z,100305.34
2022-08-09T07:39:41.442Z,100305.19
2022-08-09T07:42:55.694Z,100311.59
2022-08-09T07:46:02.090Z,100311.69
2022-08-09T07:49:05.670Z,100313.25
2022-08-09T07:52:17.148Z,100310.84
2022-08-09T07:55:20.289Z,100312.75
2022-08-09T07:58:30.777Z,100324.28
2022-08-09T08:01:34.425Z,100319.47
2022-08-09T08:04:38.194Z,100314.09
2022-08-09T08:09:01.718Z,100302.81
2022-08-09T08:12:09.868Z,100309.00
2022-08-09T08:14:25.790Z,100311.72
2022-08-09T08:17:52.572Z,100309.28
2022-08-09T08:20:50.525Z,100307.66
2022-08-09T08:23:56.005Z,100319.84
2022-08-09T08:26:58.517Z,100318.22
2022-08-09T08:30:04.378Z,100315.31
2022-08-09T08:33:07.242Z,100315.03
2022-08-09T08:36:14.200Z,100312.47
2022-08-09T08:39:39.191Z,100326.16
2022-08-09T08:42:47.384Z,100311.81
2022-08-09T08:46:25.011Z,100303.50
2022-08-09T08:49:19.073Z,100318.16
2022-08-09T08:52:58.202Z,100320.44
2022-08-09T08:55:48.839Z,100315.53
2022-08-09T08:58:54.832Z,100319.41
2022-08-09T09:01:59.699Z,100322.53
2022-08-09T09:05:03.070Z,100323.97
2022-08-09T09:08:29.253Z,100318.66
2022-08-09T09:11:38.559Z,100316.75
2022-08-09T09:14:40.827Z,100320.56
2022-08-09T09:17:49.112Z,100315.16
2022-08-09T09:20:55.221Z,100318.44
2022-08-09T09:24:04.703Z,100313.16
2022-08-09T09:28:03.826Z,100309.09
2022-08-09T09:30:55.313Z,100305.78
2022-08-09T09:34:14.744Z,100297.38
2022-08-09T09:37:32.288Z,100308.25
2022-08-09T09:40:42.263Z,100309.38
2022-08-09T09:44:12.646Z,100301.81
2022-08-09T09:47:16.589Z,100289.84
2022-08-09T09:50:23.091Z,100295.03
2022-08-09T09:53:58.347Z,100288.91
2022-08-09T09:58:01.386Z,100288.34
2022-08-09T10:00:26.467Z,100298.88
2022-08-09T10:03:44.856Z,100305.28
2022-08-09T10:07:03.309Z,100301.88
2022-08-09T10:10:07.744Z,100305.22
2022-08-09T10:13:10.565Z,100302.19
2022-08-09T10:16:58.092Z,100313.66
2022-08-09T10:20:01.939Z,100314.69
2022-08-09T10:23:22.061Z,100310.53
2022-08-09T10:26:26.738Z,100304.28
2022-08-09T10:30:08.999Z,100302.00
2022-08-09T10:32:52.155Z,100293.97
2022-08-09T10:35:54.358Z,100304.03
2022-08-09T10:38:59.896Z,100312.28
2022-08-09T10:42:03.775Z,100312.44
2022-08-09T10:45:11.843Z,100313.84
2022-08-09T10:48:36.870Z,100306.47
2022-08-09T10:52:03.280Z,100312.19
2022-08-09T10:55:27.547Z,100314.13
2022-08-09T10:58:34.519Z,100313.19
2022-08-09T11:03:16.562Z,100318.75
2022-08-09T11:05:24.911Z,100300.63
2022-08-09T11:08:47.501Z,100308.91
2022-08-09T11:11:58.848Z,100311.59
2022-08-09T11:15:07.585Z,100297.41
2022-08-09T11:18:12.954Z,100296.03
2022-08-09T11:21:55.179Z,100292.41
2022-08-09T11:25:25.846Z,100293.97
2022-08-09T11:28:54.339Z,100288.50
2022-08-09T11:31:58.901Z,100282.72
2022-08-09T11:35:02.704Z,100285.38
2022-08-09T11:38:44.107Z,100291.41
2022-08-09T11:41:46.189Z,100277.31
2022-08-09T11:44:53.144Z,100290.34
2022-08-09T11:48:08.113Z,100289.06
2022-08-09T11:53:16.563Z,100289.41
2022-08-09T11:54:44.018Z,100286.78
2022-08-09T11:58:02.418Z,100280.84
2022-08-09T12:01:09.000Z,100285.88
2022-08-09T12:04:37.418Z,100283.03
2022-08-09T12:07:41.923Z,100281.78
2022-08-09T12:10:48.426Z,100277.00
2022-08-09T12:14:09.547Z,100260.31
2022-08-09T12:17:33.984Z,100262.19
2022-08-09T12:20:37.006Z,100251.41
2022-08-09T12:24:06.230Z,100264.72
2022-08-09T12:29:15.617Z,100264.50
2022-08-09T12:30:36.226Z,100256.56
2022-08-09T12:33:59.096Z,100255.22
2022-08-09T12:37:23.791Z,100264.41
2022-08-09T12:40:27.397Z,100248.66
2022-08-09T12:44:06.179Z,100257.25
2022-08-09T12:46:52.005Z,100248.81
2022-08-09T12:50:12.443Z,100255.06
2022-08-09T12:53:37.749Z,100255.88
2022-08-09T12:56:48.454Z,100243.72
2022-08-09T13:00:02.976Z,100247.72
2022-08-09T13:03:06.476Z,100244.91
2022-08-09T13:06:34.726Z,100241.94
2022-08-09T13:09:38.368Z,100240.28
2022-08-09T13:13:09.077Z,100240.19
2022-08-09T13:16:12.527Z,100242.66
2022-08-09T13:20:09.907Z,100237.34
2022-08-09T13:23:02.034Z,100221.19
2022-08-09T13:26:12.455Z,100212.91
2022-08-09T13:29:42.106Z,100212.72
2022-08-09T13:32:54.668Z,100201.00
2022-08-09T13:36:38.819Z,100214.19
2022-08-09T13:41:55.684Z,100212.84
2022-08-09T13:42:41.381Z,100218.47
2022-08-09T13:46:43.718Z,100216.56
2022-08-09T13:49:06.362Z,100218.88
2022-08-09T13:52:21.203Z,100211.44
2022-08-09T13:55:23.291Z,100212.31
2022-08-09T13:58:25.610Z,100211.16
2022-08-09T14:01:56.596Z,100196.19
2022-08-09T14:04:59.613Z,100202.47
2022-08-09T14:08:07.934Z,100202.63
2022-08-09T14:11:16.442Z,100192.84
2022-08-09T14:14:25.840Z,100198.13
2022-08-09T14:18:01.650Z,100202.19
2022-08-09T14:20:52.777Z,100198.41
2022-08-09T14:23:56.953Z,100196.09
2022-08-09T14:27:01.268Z,100193.69
2022-08-09T14:30:36.802Z,100193.28
2022-08-09T14:33:26.942Z,100185.25
2022-08-09T14:36:35.297Z,100189.47
2022-08-09T14:39:48.045Z,100181.31
2022-08-09T14:42:50.756Z,100174.88
2022-08-09T14:46:54.363Z,100185.94
2022-08-09T14:49:16.114Z,100174.88
2022-08-09T14:52:18.361Z,100168.47
2022-08-09T14:55:21.221Z,100162.91
2022-08-09T14:58:23.380Z,100164.69
2022-08-09T15:01:29.785Z,100161.91
2022-08-09T15:04:32.713Z,100159.44
2022-08-09T15:07:35.419Z,100152.22
2022-08-09T15:10:38.166Z,100162.97
2022-08-09T15:13:48.164Z,100151.44
2022-08-09T15:16:59.405Z,100157.78
2022-08-09T15:20:03.072Z,100159.03
2022-08-09T15:24:03.642Z,100146.25
2022-08-09T15:26:31.750Z,100146.50
2022-08-09T15:30:58.280Z,100143.75
2022-08-09T15:32:56.425Z,100139.31
2022-08-09T15:36:02.033Z,100138.91
2022-08-09T15:39:07.763Z,100138.16
2022-08-09T15:42:09.847Z,100135.25
2022-08-09T15:45:14.315Z,100143.53
2022-08-09T15:48:30.688Z,100146.53
2022-08-09T15:52:03.981Z,100139.31
2022-08-09T15:54:56.330Z,100134.19
2022-08-09T15:57:58.393Z,100125.47
2022-08-09T16:01:03.795Z,100129.81
2022-08-09T16:04:05.983Z,100129.41
2022-08-09T16:07:15.821Z,100131.69
2022-08-09T16:10:56.030Z,100120.72
2022-08-09T16:14:04.765Z,100130.69
2022-08-09T16:17:02.683Z,100124.47
2022-08-09T16:20:08.999Z,100112.63
2022-08-09T16:23:11.546Z,100114.78
2022-08-09T16:26:26.768Z,100113.88
2022-08-09T16:29:49.934Z,100111.16
2022-08-09T16:33:11.422Z,100112.28
2022-08-09T16:36:18.667Z,100107.31
2022-08-09T16:39:21.095Z,100109.72
2022-08-09T16:42:28.179Z,100109.22
2022-08-09T16:45:30.531Z,100112.47
2022-08-09T16:48:50.438Z,100115.38
2022-08-09T16:51:55.432Z,100106.63
2022-08-09T16:54:58.439Z,100107.75
2022-08-09T16:58:09.027Z,100107.97
2022-08-09T17:01:12.536Z,100102.81
2022-08-09T17:04:25.994Z,100101.59
2022-08-09T17:08:46.846Z,100107.03
2022-08-09T17:10:53.091Z,100097.63
2022-08-09T17:14:01.555Z,100099.41
2022-08-09T17:17:12.859Z,100094.97
2022-08-09T17:20:32.387Z,100097.28
2022-08-09T17:24:20.505Z,100100.53
2022-08-09T17:27:01.939Z,100100.44
2022-08-09T17:30:12.897Z,100104.56
2022-08-09T17:33:22.705Z,100101.34
2022-08-09T17:36:25.206Z,100093.72
2022-08-09T17:39:53.126Z,100101.91
2022-08-09T17:42:55.548Z,100098.72
2022-08-09T17:46:06.170Z,100106.44
2022-08-09T17:49:09.635Z,100115.91
2022-08-09T17:52:21.952Z,100117.28
2022-08-09T17:55:24.687Z,100114.84
2022-08-09T17:58:46.975Z,100125.63
2022-08-09T18:02:07.936Z,100126.59
2022-08-09T18:05:13.040Z,100126.38
2022-08-09T18:08:15.378Z,100135.09
2022-08-09T18:11:18.799Z,100128.34
2022-08-09T18:14:26.112Z,100135.00
2022-08-09T18:18:02.551Z,100127.88
2022-08-09T18:21:16.682Z,100132.28
2022-08-09T18:24:17.126Z,100137.31
2022-08-09T18:27:59.802Z,100136.31
2022-08-09T18:30:48.818Z,100135.03
2022-08-09T18:33:53.189Z,100136.88
2022-08-09T18:36:55.976Z,100141.28
2022-08-09T18:39:58.154Z,100143.09
2022-08-09T18:43:00.455Z,100142.81
2022-08-09T18:46:49.768Z,100147.19
2022-08-09T18:49:26.511Z,100145.69
2022-08-09T18:52:34.929Z,100150.03
2022-08-09T18:55:55.989Z,100154.81
2022-08-09T18:59:01.218Z,100159.03
2022-08-09T19:02:04.034Z,100167.16
2022-08-09T19:05:19.539Z,100172.41
2022-08-09T19:08:27.915Z,100166.94
2022-08-09T19:11:35.335Z,100170.00
2022-08-09T19:14:39.671Z,100170.38
2022-08-09T19:17:55.161Z,100173.63
2022-08-09T19:20:58.828Z,100168.78
2022-08-09T19:24:31.980Z,100170.13
2022-08-09T19:27:28.526Z,100172.22
2022-08-09T19:30:32.317Z,100173.84
2022-08-09T19:33:34.614Z,100170.03
2022-08-09T19:36:36.784Z,100171.66
2022-08-09T19:40:02.955Z,100169.47
2022-08-09T19:43:01.721Z,100185.88
2022-08-09T19:46:04.308Z,100188.00
2022-08-09T19:50:09.776Z,100184.44
2022-08-09T19:52:28.604Z,100188.97
2022-08-09T19:56:02.340Z,100190.72
2022-08-09T19:58:56.430Z,100201.94
2022-08-09T20:04:16.692Z,100194.41
2022-08-09T20:05:45.942Z,100199.69
2022-08-09T20:08:49.156Z,100197.63
2022-08-09T20:11:53.293Z,100189.63
2022-08-09T20:14:55.959Z,100192.38
2022-08-09T20:17:59.452Z,100193.69
2022-08-09T20:21:02.167Z,100190.94
2022-08-09T20:24:04.910Z,100190.44
2022-08-09T20:27:08.636Z,100194.72
2022-08-09T20:30:12.583Z,100194.66
2022-08-09T20:33:14.892Z,100192.53
2022-08-09T20:36:20.338Z,100197.94
2022-08-09T20:40:14.157Z,100199.88
2022-08-09T20:42:46.651Z,100193.88
2022-08-09T20:46:33.253Z,100196.84
2022-08-09T20:49:23.802Z,100186.66
2022-08-09T20:52:27.431Z,100200.09
2022-08-09T20:55:29.707Z,100192.53
2022-08-09T20:58:57.825Z,100195.47
2022-08-09T21:02:00.620Z,100194.03
2022-08-09T21:05:56.169Z,100198.25
2022-08-09T21:08:36.565Z,100201.78
2022-08-09T21:15:02.732Z,100195.09
2022-08-09T21:18:22.064Z,100182.78
2022-08-09T21:21:46.912Z,100198.63
2022-08-09T21:25:08.329Z,100190.59
2022-08-09T21:28:12.125Z,100188.50
2022-08-09T21:31:19.666Z,100188.78
2022-08-09T21:34:29.684Z,100188.44
2022-08-09T21:37:35.677Z,100188.06
2022-08-09T21:40:50.509Z,100190.56
2022-08-09T21:43:56.590Z,100193.13
2022-08-09T21:47:00.821Z,100196.63
2022-08-09T21:50:06.220Z,100194.22
2022-08-09T21:53:23.955Z,100181.78
2022-08-09T21:56:42.871Z,100183.91
2022-08-09T21:59:47.171Z,100183.13
2022-08-09T22:02:58.270Z,100175.91
2022-08-09T22:06:01.767Z,100185.03
2022-08-09T22:09:05.138Z,100183.50
2022-08-09T22:12:18.651Z,100176.47
2022-08-09T22:15:35.061Z,100179.88
2022-08-09T22:18:38.455Z,100184.72
2022-08-09T22:21:54.380Z,100181.97
2022-08-09T22:26:08.074Z,100179.81
2022-08-09T22:28:29.407Z,100184.38
2022-08-09T22:31:36.271Z,100185.34
2022-08-09T22:34:41.121Z,100175.50
2022-08-09T22:37:43.392Z,100183.84
2022-08-09T22:40:49.299Z,100193.22
2022-08-09T22:44:01.988Z,100188.28
2022-08-09T22:48:12.381Z,100180.28
2022-08-09T22:50:29.656Z,100182.44
2022-08-09T22:53:33.325Z,100180.56
2022-08-09T22:56:56.537Z,100184.13
2022-08-09T22:59:59.565Z,100184.22
2022-08-09T23:03:01.704Z,100178.34
2022-08-09T23:06:04.184Z,100171.72
2022-08-09T23:09:06.967Z,100170.09
2022-08-09T23:12:09.143Z,100174.47
2022-08-09T23:15:11.353Z,100170.13
2022-08-09T23:18:13.427Z,100171.53
2022-08-09T23:21:15.936Z,100164.19
2022-08-09T23:24:28.216Z,100160.06
2022-08-09T23:27:30.361Z,100158.78
2022-08-09T23:30:32.563Z,100159.59
2022-08-09T23:33:34.694Z,100145.47
2022-08-09T23:36:36.828Z,100148.78
2022-08-09T23:39:38.997Z,100145.91
2022-08-09T23:42:41.120Z,100133.88
2022-08-09T23:45:43.263Z,100132.66
2022-08-09T23:48:45.373Z,100132.16
2022-08-09T23:51:47.500Z,100127.28
2022-08-09T23:54:49.634Z,100132.66
2022-08-09T23:58:07.897Z,100127.41
